createdAt,value
2024-04-08T03:52:53.407Z,9.70
2024-04-08T03:55:23.494Z,9.60
2024-04-08T03:57:50.420Z,9.50
2024-04-08T04:00:17.417Z,9.50
2024-04-08T04:02:44.330Z,9.60
2024-04-08T04:05:11.308Z,9.50
2024-04-08T04:07:38.995Z,9.50
2024-04-08T04:10:07.305Z,9.50
2024-04-08T04:12:34.804Z,9.50
2024-04-08T04:15:02.243Z,9.50
2024-04-08T04:17:29.276Z,9.50
2024-04-08T04:19:56.179Z,9.50
2024-04-08T04:22:23.087Z,9.60
2024-04-08T04:24:50.134Z,9.60
2024-04-08T04:27:17.062Z,9.60
2024-04-08T04:29:44.025Z,9.50
2024-04-08T04:32:10.939Z,9.60
2024-04-08T04:34:37.898Z,9.50
2024-04-08T04:37:05.165Z,9.50
2024-04-08T04:39:32.085Z,9.60
2024-04-08T04:41:59.056Z,9.60
2024-04-08T04:44:26.003Z,9.60
2024-04-08T04:46:53.518Z,9.60
2024-04-08T04:49:20.443Z,9.50
2024-04-08T04:51:47.430Z,9.50
2024-04-08T04:54:14.345Z,9.50
2024-04-08T04:56:41.544Z,9.50
2024-04-08T04:59:08.465Z,9.40
2024-04-08T05:01:35.361Z,9.40
2024-04-08T05:04:02.290Z,9.40
2024-04-08T05:06:29.270Z,9.30
2024-04-08T05:08:57.789Z,9.30
2024-04-08T05:11:25.200Z,9.30
2024-04-08T05:13:52.143Z,9.30
2024-04-08T05:16:19.089Z,9.30
2024-04-08T05:18:46.026Z,9.20
2024-04-08T05:21:13.397Z,9.30
2024-04-08T05:23:40.457Z,9.20
2024-04-08T05:26:07.391Z,9.20
2024-04-08T05:28:34.352Z,9.20
2024-04-08T05:31:01.259Z,9.20
2024-04-08T05:33:28.325Z,9.20
2024-04-08T05:35:55.321Z,9.20
2024-04-08T05:38:22.321Z,9.20
2024-04-08T05:40:49.280Z,9.30
2024-04-08T05:43:16.273Z,9.30
2024-04-08T05:45:43.818Z,9.40
2024-04-08T05:48:11.076Z,9.30
2024-04-08T05:50:38.238Z,9.40
2024-04-08T05:53:05.340Z,9.50
2024-04-08T05:55:32.906Z,9.50
2024-04-08T05:58:00.077Z,9.50
2024-04-08T06:00:27.047Z,9.60
2024-04-08T06:02:55.936Z,9.70
2024-04-08T06:05:25.356Z,9.70
2024-04-08T06:07:52.330Z,9.90
2024-04-08T06:10:20.081Z,10.10
2024-04-08T06:12:47.571Z,10.60
2024-04-08T06:15:16.301Z,11.60
2024-04-08T06:17:44.166Z,12.40
2024-04-08T06:20:11.666Z,12.90
2024-04-08T06:22:39.056Z,12.80
2024-04-08T06:25:07.610Z,12.40
2024-04-08T06:27:35.050Z,12.10
2024-04-08T06:30:02.491Z,11.80
2024-04-08T06:32:29.667Z,11.70
2024-04-08T06:34:56.674Z,11.40
2024-04-08T06:37:23.605Z,11.30
2024-04-08T06:39:50.529Z,11.30
2024-04-08T06:42:18.875Z,11.30
2024-04-08T06:44:52.476Z,11.40
2024-04-08T06:47:21.080Z,11.60
2024-04-08T06:49:48.656Z,11.80
2024-04-08T06:52:15.592Z,12.00
2024-04-08T06:54:44.479Z,12.10
2024-04-08T06:57:11.442Z,12.20
2024-04-08T06:59:39.029Z,12.20
2024-04-08T07:02:06.841Z,12.20
2024-04-08T07:04:33.999Z,12.20
2024-04-08T07:07:00.952Z,12.30
2024-04-08T07:09:28.598Z,12.40
2024-04-08T07:11:59.080Z,12.80
2024-04-08T07:14:26.842Z,13.00
2024-04-08T07:16:53.778Z,13.20
2024-04-08T07:19:21.052Z,13.50
2024-04-08T07:21:47.967Z,14.00
2024-04-08T07:24:14.953Z,14.30
2024-04-08T07:26:41.885Z,14.00
2024-04-08T07:29:08.930Z,13.90
2024-04-08T07:31:35.806Z,13.90
2024-04-08T07:34:03.972Z,13.70
2024-04-08T07:36:31.101Z,13.60
2024-04-08T07:39:01.871Z,13.70
2024-04-08T07:41:30.370Z,13.90
2024-04-08T07:43:57.191Z,13.90
2024-04-08T07:46:24.147Z,14.20
2024-04-08T07:48:51.135Z,14.40
2024-04-08T07:51:18.758Z,14.50
2024-04-08T07:53:45.660Z,14.60
2024-04-08T07:56:12.641Z,14.60
2024-04-08T07:58:39.666Z,14.60
2024-04-08T08:01:07.953Z,14.70
2024-04-08T08:03:35.754Z,14.80
2024-04-08T08:06:06.132Z,14.70
2024-04-08T08:08:35.013Z,14.30
2024-04-08T08:11:05.937Z,14.10
2024-04-08T08:13:34.484Z,14.00
2024-04-08T08:16:01.829Z,14.00
2024-04-08T08:18:29.153Z,14.00
2024-04-08T08:20:56.820Z,14.10
2024-04-08T08:23:23.824Z,14.30
2024-04-08T08:25:50.958Z,14.20
2024-04-08T08:28:18.045Z,14.20
2024-04-08T08:30:44.983Z,14.10
2024-04-08T08:33:12.171Z,14.30
2024-04-08T08:35:39.338Z,14.50
2024-04-08T08:38:07.504Z,14.80
2024-04-08T08:40:45.358Z,15.10
2024-04-08T08:43:12.787Z,15.60
2024-04-08T08:45:47.765Z,15.90
2024-04-08T08:48:15.073Z,16.40
2024-04-08T08:50:43.924Z,16.70
2024-04-08T08:53:10.998Z,16.20
2024-04-08T08:55:41.943Z,16.00
2024-04-08T08:58:11.017Z,16.00
2024-04-08T09:00:42.180Z,15.90
2024-04-08T09:03:17.378Z,15.50
2024-04-08T09:05:45.214Z,15.40
2024-04-08T09:08:12.241Z,15.50
2024-04-08T09:10:47.156Z,15.80
2024-04-08T09:13:24.624Z,15.90
2024-04-08T09:15:52.404Z,16.20
2024-04-08T09:18:21.293Z,16.10
2024-04-08T09:20:49.012Z,16.20
2024-04-08T09:23:16.881Z,16.00
2024-04-08T09:25:44.081Z,15.80
2024-04-08T09:28:12.749Z,15.70
2024-04-08T09:30:40.598Z,15.60
2024-04-08T09:33:11.550Z,15.40
2024-04-08T09:35:44.023Z,15.10
2024-04-08T09:38:13.738Z,15.00
2024-04-08T09:40:41.337Z,15.30
2024-04-08T09:43:12.685Z,15.70
2024-04-08T09:45:41.651Z,15.60
2024-04-08T09:48:13.521Z,15.80
2024-04-08T09:50:43.862Z,16.00
2024-04-08T09:53:11.133Z,16.00
2024-04-08T09:55:46.816Z,16.00
2024-04-08T09:58:18.977Z,15.80
2024-04-08T10:00:47.572Z,15.90
2024-04-08T10:03:17.078Z,16.00
2024-04-08T10:05:45.165Z,16.40
2024-04-08T10:08:13.177Z,16.90
2024-04-08T10:10:40.468Z,17.40
2024-04-08T10:13:12.071Z,18.60
2024-04-08T10:15:40.178Z,19.50
2024-04-08T10:18:08.998Z,19.40
2024-04-08T10:20:36.238Z,18.70
2024-04-08T10:23:03.431Z,18.00
2024-04-08T10:25:38.838Z,17.20
2024-04-08T10:28:09.506Z,17.00
2024-04-08T10:30:38.942Z,16.80
2024-04-08T10:33:07.111Z,16.90
2024-04-08T10:35:34.295Z,17.90
2024-04-08T10:38:01.444Z,18.50
2024-04-08T10:40:28.503Z,18.60
2024-04-08T10:42:57.310Z,20.20
2024-04-08T10:45:24.343Z,20.70
2024-04-08T10:47:57.860Z,20.50
2024-04-08T10:50:25.257Z,19.50
2024-04-08T10:52:52.886Z,18.10
2024-04-08T10:55:20.019Z,17.10
2024-04-08T10:57:46.947Z,16.60
2024-04-08T11:00:14.097Z,16.30
2024-04-08T11:02:41.572Z,16.50
2024-04-08T11:05:10.676Z,17.30
2024-04-08T11:07:37.919Z,18.40
2024-04-08T11:10:23.894Z,18.00
2024-04-08T11:12:51.037Z,17.50
2024-04-08T11:15:18.128Z,17.20
2024-04-08T11:17:45.257Z,18.20
2024-04-08T11:20:18.142Z,19.50
2024-04-08T11:22:45.617Z,21.00
2024-04-08T11:25:16.753Z,20.90
2024-04-08T11:27:45.080Z,19.30
2024-04-08T11:30:15.598Z,18.40
2024-04-08T11:32:42.765Z,18.50
2024-04-08T11:35:10.145Z,19.10
2024-04-08T11:37:37.326Z,19.90
2024-04-08T11:40:10.662Z,20.60
2024-04-08T11:42:37.555Z,20.80
2024-04-08T11:45:08.792Z,21.30
2024-04-08T11:47:38.357Z,21.80
2024-04-08T11:50:06.345Z,22.10
2024-04-08T11:52:34.620Z,22.00
2024-04-08T11:55:03.521Z,21.90
2024-04-08T11:57:32.216Z,22.10
2024-04-08T11:59:59.190Z,21.30
2024-04-08T12:02:26.271Z,21.20
2024-04-08T12:04:53.787Z,21.60
2024-04-08T12:07:21.087Z,22.00
2024-04-08T12:09:48.089Z,21.60
2024-04-08T12:12:15.393Z,20.70
2024-04-08T12:14:43.126Z,19.70
2024-04-08T12:17:10.851Z,18.50
2024-04-08T12:19:38.656Z,17.60
2024-04-08T12:22:06.259Z,17.00
2024-04-08T12:24:34.586Z,16.40
2024-04-08T12:27:01.676Z,16.10
2024-04-08T12:29:28.618Z,15.90
2024-04-08T12:31:55.836Z,16.00
2024-04-08T12:34:22.855Z,16.20
2024-04-08T12:36:49.809Z,16.30
2024-04-08T12:39:16.787Z,16.20
2024-04-08T12:41:43.696Z,16.00
2024-04-08T12:44:10.862Z,15.80
2024-04-08T12:46:37.873Z,15.60
2024-04-08T12:49:05.074Z,15.70
2024-04-08T12:51:32.097Z,15.60
2024-04-08T12:53:59.112Z,15.10
2024-04-08T12:56:26.164Z,15.10
2024-04-08T12:58:57.628Z,15.30
2024-04-08T13:01:26.299Z,15.60
2024-04-08T13:03:54.053Z,15.70
2024-04-08T13:06:20.940Z,16.10
2024-04-08T13:08:48.052Z,16.60
2024-04-08T13:11:15.487Z,17.00
2024-04-08T13:13:45.107Z,17.10
2024-04-08T13:16:14.084Z,17.40
2024-04-08T13:18:45.359Z,17.20
2024-04-08T13:21:13.065Z,17.10
2024-04-08T13:23:40.480Z,16.80
2024-04-08T13:26:11.389Z,16.50
2024-04-08T13:28:38.838Z,16.50
2024-04-08T13:31:05.878Z,16.40
2024-04-08T13:33:33.138Z,16.40
2024-04-08T13:36:00.836Z,16.30
2024-04-08T13:38:28.558Z,16.40
2024-04-08T13:40:55.407Z,16.30
2024-04-08T13:43:22.421Z,16.30
2024-04-08T13:45:49.409Z,16.30
2024-04-08T13:48:16.461Z,16.50
2024-04-08T13:50:43.491Z,16.50
2024-04-08T13:53:10.436Z,16.30
2024-04-08T13:55:39.505Z,16.30
2024-04-08T13:58:07.133Z,16.50
2024-04-08T14:00:34.341Z,16.60
2024-04-08T14:03:01.486Z,16.50
2024-04-08T14:05:28.539Z,16.40
2024-04-08T14:07:55.575Z,16.20
2024-04-08T14:10:22.522Z,16.10
2024-04-08T14:12:49.454Z,16.30
2024-04-08T14:15:17.422Z,16.30
2024-04-08T14:17:44.832Z,16.30
2024-04-08T14:20:11.934Z,16.40
2024-04-08T14:22:39.616Z,16.50
2024-04-08T14:25:06.905Z,16.30
2024-04-08T14:27:34.040Z,16.30
2024-04-08T14:30:01.673Z,16.30
2024-04-08T14:32:29.220Z,16.20
2024-04-08T14:34:56.718Z,16.40
2024-04-08T14:37:42.523Z,16.70
2024-04-08T14:40:11.223Z,16.90
2024-04-08T14:42:38.477Z,16.80
2024-04-08T14:45:06.177Z,16.50
2024-04-08T14:47:33.556Z,16.50
2024-04-08T14:50:00.675Z,16.50
2024-04-08T14:52:33.537Z,16.40
2024-04-08T14:55:07.068Z,16.50
2024-04-08T14:57:34.556Z,16.60
2024-04-08T15:00:01.965Z,16.80
2024-04-08T15:02:29.118Z,16.70
2024-04-08T15:04:56.266Z,16.50
2024-04-08T15:07:28.166Z,16.20
2024-04-08T15:09:56.367Z,16.20
2024-04-08T15:12:23.594Z,16.10
2024-04-08T15:14:50.747Z,16.30
2024-04-08T15:17:20.876Z,16.30
2024-04-08T15:19:49.472Z,16.30
2024-04-08T15:22:16.672Z,16.40
2024-04-08T15:24:47.350Z,16.50
2024-04-08T15:27:14.427Z,16.30
2024-04-08T15:29:44.800Z,16.20
2024-04-08T15:32:13.668Z,16.20
2024-04-08T15:34:42.390Z,16.10
2024-04-08T15:37:10.961Z,16.20
2024-04-08T15:39:38.032Z,16.20
2024-04-08T15:42:05.190Z,16.00
2024-04-08T15:44:32.438Z,15.90
2024-04-08T15:46:59.486Z,15.90
2024-04-08T15:49:26.684Z,15.80
2024-04-08T15:51:57.227Z,15.90
2024-04-08T15:54:24.907Z,16.00
2024-04-08T15:56:53.882Z,15.90
2024-04-08T15:59:21.045Z,15.70
2024-04-08T16:01:48.744Z,15.70
2024-04-08T16:04:16.541Z,15.60
2024-04-08T16:06:43.908Z,15.50
2024-04-08T16:09:10.901Z,15.60
2024-04-08T16:11:38.054Z,15.60
2024-04-08T16:14:05.231Z,15.60
2024-04-08T16:16:32.380Z,15.60
2024-04-08T16:18:59.568Z,15.70
2024-04-08T16:21:28.635Z,15.90
2024-04-08T16:23:57.217Z,16.10
2024-04-08T16:26:25.398Z,16.30
2024-04-08T16:28:59.648Z,16.30
2024-04-08T16:31:32.927Z,16.20
2024-04-08T16:34:00.786Z,16.00
2024-04-08T16:36:30.320Z,16.00
2024-04-08T16:38:58.400Z,15.90
2024-04-08T16:41:25.544Z,15.80
2024-04-08T16:43:52.667Z,15.80
2024-04-08T16:46:20.231Z,15.80
2024-04-08T16:48:48.018Z,15.80
2024-04-08T16:51:16.330Z,15.80
2024-04-08T16:53:43.420Z,15.80
2024-04-08T16:56:10.580Z,15.70
2024-04-08T16:58:37.532Z,15.60
2024-04-08T17:01:04.742Z,15.60
2024-04-08T17:03:31.880Z,15.50
2024-04-08T17:06:07.441Z,15.50
2024-04-08T17:08:34.449Z,15.50
2024-04-08T17:11:02.557Z,15.50
2024-04-08T17:13:31.746Z,15.50
2024-04-08T17:15:59.066Z,15.50
2024-04-08T17:18:27.092Z,15.50
2024-04-08T17:20:58.380Z,15.40
2024-04-08T17:23:25.819Z,15.30
2024-04-08T17:25:58.623Z,15.30
2024-04-08T17:28:25.906Z,15.20
2024-04-08T17:30:57.124Z,15.20
2024-04-08T17:33:24.735Z,15.10
2024-04-08T17:35:55.580Z,15.00
2024-04-08T17:38:23.270Z,14.80
2024-04-08T17:41:00.268Z,14.60
2024-04-08T17:43:36.362Z,14.50
2024-04-08T17:46:05.501Z,14.40
2024-04-08T17:48:34.395Z,14.20
2024-04-08T17:51:03.687Z,14.00
2024-04-08T17:53:31.674Z,13.80
2024-04-08T17:55:59.927Z,13.60
2024-04-08T17:58:39.924Z,13.30
2024-04-08T18:01:08.406Z,13.20
2024-04-08T18:03:37.326Z,13.10
2024-04-08T18:06:23.683Z,13.00
2024-04-08T18:08:52.556Z,12.90
2024-04-08T18:11:22.102Z,12.70
2024-04-08T18:13:49.442Z,12.60
2024-04-08T18:16:19.087Z,12.60
2024-04-08T18:18:49.822Z,12.50
2024-04-08T18:21:17.687Z,12.40
2024-04-08T18:23:45.523Z,12.40
2024-04-08T18:26:15.247Z,12.30
2024-04-08T18:28:43.313Z,12.30
2024-04-08T18:31:12.789Z,12.30
2024-04-08T18:33:45.516Z,12.30
2024-04-08T18:36:20.115Z,12.30
2024-04-08T18:38:50.885Z,12.20
2024-04-08T18:41:19.761Z,12.20
2024-04-08T18:43:47.075Z,12.20
2024-04-08T18:46:21.981Z,12.10
2024-04-08T18:48:49.738Z,12.00
2024-04-08T18:51:17.286Z,12.00
2024-04-08T18:53:45.883Z,11.90
2024-04-08T18:56:12.874Z,11.90
2024-04-08T18:58:39.796Z,11.80
2024-04-08T19:01:10.150Z,11.80
2024-04-08T19:03:41.335Z,11.70
2024-04-08T19:06:12.748Z,11.70
2024-04-08T19:08:41.120Z,11.60
2024-04-08T19:11:08.234Z,11.60
2024-04-08T19:13:35.248Z,11.60
2024-04-08T19:16:03.230Z,11.50
2024-04-08T19:18:31.151Z,11.50
2024-04-08T19:20:58.260Z,11.50
2024-04-08T19:23:25.227Z,11.50
2024-04-08T19:25:59.391Z,11.50
2024-04-08T19:28:29.623Z,11.50
2024-04-08T19:30:57.210Z,11.50
2024-04-08T19:33:24.533Z,11.50
2024-04-08T19:35:58.088Z,11.50
2024-04-08T19:38:28.982Z,11.50
2024-04-08T19:41:04.049Z,11.50
2024-04-08T19:43:31.091Z,11.40
2024-04-08T19:46:12.458Z,11.40
2024-04-08T19:48:41.506Z,11.40
2024-04-08T19:51:17.297Z,11.40
2024-04-08T19:53:46.980Z,11.30
2024-04-08T19:56:16.806Z,11.30
2024-04-08T19:58:44.286Z,11.30
2024-04-08T20:01:12.205Z,11.20
2024-04-08T20:03:40.544Z,11.30
2024-04-08T20:06:08.463Z,11.30
2024-04-08T20:08:38.059Z,11.20
2024-04-08T20:11:11.098Z,11.20
2024-04-08T20:13:42.015Z,11.20
2024-04-08T20:16:17.117Z,11.10
2024-04-08T20:18:44.632Z,11.10
2024-04-08T20:21:14.345Z,11.10
2024-04-08T20:23:41.923Z,11.10
2024-04-08T20:26:09.149Z,11.10
2024-04-08T20:28:36.240Z,11.10
2024-04-08T20:31:05.587Z,11.00
2024-04-08T20:33:32.973Z,11.00
2024-04-08T20:36:02.189Z,11.10
2024-04-08T20:38:31.678Z,11.10
2024-04-08T20:41:02.908Z,11.10
2024-04-08T20:43:35.458Z,11.10
2024-04-08T20:46:02.863Z,11.10
2024-04-08T20:48:30.072Z,11.10
2024-04-08T20:51:02.548Z,11.10
2024-04-08T20:53:30.501Z,11.20
2024-04-08T20:56:06.279Z,11.20
2024-04-08T20:58:34.387Z,11.10
2024-04-08T21:01:08.869Z,11.10
2024-04-08T21:03:36.897Z,11.10
2024-04-08T21:06:04.936Z,11.00
2024-04-08T21:08:32.527Z,10.80
2024-04-08T21:11:03.825Z,10.60
2024-04-08T21:13:33.829Z,10.40
2024-04-08T21:16:02.506Z,10.20
2024-04-08T21:18:30.169Z,10.00
2024-04-08T21:21:00.989Z,10.00
2024-04-08T21:23:28.807Z,10.00
2024-04-08T21:26:08.198Z,9.90
2024-04-08T21:28:35.866Z,10.00
2024-04-08T21:31:03.229Z,9.90
2024-04-08T21:33:30.478Z,10.00
2024-04-08T21:35:58.884Z,9.90
2024-04-08T21:38:27.180Z,9.90
2024-04-08T21:41:01.015Z,9.90
2024-04-08T21:43:28.659Z,9.80
2024-04-08T21:45:58.078Z,9.80
2024-04-08T21:48:26.214Z,9.80
2024-04-08T21:50:54.302Z,9.80
2024-04-08T21:53:22.537Z,9.90
2024-04-08T21:55:53.994Z,9.80
2024-04-08T21:58:21.519Z,9.80
2024-04-08T22:00:50.619Z,9.80
2024-04-08T22:03:17.785Z,9.70
2024-04-08T22:05:45.335Z,9.70
2024-04-08T22:08:12.421Z,9.70
2024-04-08T22:10:39.351Z,9.70
2024-04-08T22:13:07.264Z,9.70
2024-04-08T22:15:35.438Z,9.60
2024-04-08T22:18:03.116Z,9.60
2024-04-08T22:20:30.099Z,9.60
2024-04-08T22:22:57.131Z,9.70
2024-04-08T22:25:24.385Z,9.70
2024-04-08T22:27:51.541Z,9.70
2024-04-08T22:30:18.557Z,9.70
2024-04-08T22:32:45.634Z,9.80
2024-04-08T22:35:12.601Z,9.80
2024-04-08T22:37:39.647Z,9.80
2024-04-08T22:40:09.064Z,9.80
2024-04-08T22:42:36.764Z,9.80
2024-04-08T22:45:04.334Z,9.90
2024-04-08T22:47:31.851Z,9.90
2024-04-08T22:49:58.967Z,9.90
2024-04-08T22:52:25.904Z,9.90
2024-04-08T22:54:53.132Z,9.90
2024-04-08T22:57:20.148Z,9.90
2024-04-08T22:59:47.115Z,9.90
2024-04-08T23:02:14.020Z,9.90
2024-04-08T23:04:41.754Z,10.00
2024-04-08T23:07:08.797Z,9.90
2024-04-08T23:09:36.321Z,9.90
2024-04-08T23:12:03.401Z,9.80
2024-04-08T23:14:31.108Z,9.80
2024-04-08T23:16:58.164Z,9.70
2024-04-08T23:19:25.242Z,9.80
2024-04-08T23:21:52.278Z,9.80
2024-04-08T23:24:19.263Z,9.80
2024-04-08T23:26:46.218Z,9.80
2024-04-08T23:29:13.126Z,9.80
2024-04-08T23:31:40.366Z,9.80
2024-04-08T23:34:07.893Z,9.80
2024-04-08T23:36:35.150Z,9.80
2024-04-08T23:39:02.219Z,9.90
2024-04-08T23:41:29.307Z,9.80
2024-04-08T23:43:56.209Z,9.80
2024-04-08T23:46:23.141Z,9.70
2024-04-08T23:48:50.305Z,9.70
2024-04-08T23:51:17.559Z,9.70
2024-04-08T23:53:44.927Z,9.70
2024-04-08T23:56:11.900Z,9.70
2024-04-08T23:58:38.788Z,9.70
